createdAt,value
2018-06-17T00:02:10.093Z,7.60
2018-06-17T00:04:37.617Z,6.80
2018-06-17T00:07:05.920Z,6.90
2018-06-17T00:09:33.888Z,12.47
2018-06-17T00:12:01.868Z,8.80
2018-06-17T00:14:29.719Z,8.27
2018-06-17T00:16:57.183Z,8.67
2018-06-17T00:19:25.195Z,9.40
2018-06-17T00:21:53.225Z,8.33
2018-06-17T00:24:21.153Z,12.83
2018-06-17T00:26:48.663Z,11.60
2018-06-17T00:29:17.525Z,14.93
2018-06-17T00:31:45.597Z,7.00
2018-06-17T00:34:13.827Z,7.90
2018-06-17T00:36:41.287Z,9.03
2018-06-17T00:39:10.237Z,9.90
2018-06-17T00:41:38.567Z,6.80
2018-06-17T00:44:06.951Z,8.80
2018-06-17T00:46:35.322Z,7.47
2018-06-17T00:49:03.827Z,8.63
2018-06-17T00:51:31.441Z,9.00
2018-06-17T00:53:58.979Z,9.23
2018-06-17T00:56:26.984Z,11.50
2018-06-17T00:58:54.730Z,8.60
2018-06-17T01:01:22.668Z,13.23
2018-06-17T01:03:50.929Z,16.30
2018-06-17T01:06:19.151Z,7.70
2018-06-17T01:08:46.753Z,8.00
2018-06-17T01:11:15.076Z,8.93
2018-06-17T01:13:42.664Z,7.97
2018-06-17T01:16:10.228Z,10.17
2018-06-17T01:18:37.769Z,11.90
2018-06-17T01:21:06.152Z,8.00
2018-06-17T01:23:33.679Z,10.40
2018-06-17T01:26:07.845Z,7.40
2018-06-17T01:28:36.663Z,8.23
2018-06-17T01:31:04.648Z,8.90
2018-06-17T01:33:33.227Z,10.33
2018-06-17T01:36:00.881Z,10.93
2018-06-17T01:38:29.192Z,10.70
2018-06-17T01:40:57.363Z,9.13
2018-06-17T01:43:25.274Z,9.57
2018-06-17T01:45:53.267Z,8.57
2018-06-17T01:48:21.184Z,10.10
2018-06-17T01:50:48.727Z,7.13
2018-06-17T01:53:16.281Z,8.80
2018-06-17T01:55:44.272Z,15.13
2018-06-17T01:58:11.801Z,8.97
2018-06-17T02:00:39.828Z,8.90
2018-06-17T02:03:13.129Z,7.00
2018-06-17T02:05:47.072Z,8.47
2018-06-17T02:08:20.196Z,7.90
2018-06-17T02:10:54.611Z,8.57
2018-06-17T02:13:22.150Z,8.30
2018-06-17T02:15:50.236Z,6.23
2018-06-17T02:18:18.400Z,6.60
2018-06-17T02:20:46.785Z,9.53
2018-06-17T02:23:14.580Z,10.00
2018-06-17T02:25:42.623Z,8.10
2018-06-17T02:28:10.122Z,8.83
2018-06-17T02:30:38.024Z,7.53
2018-06-17T02:33:06.042Z,8.80
2018-06-17T02:35:33.944Z,10.47
2018-06-17T02:38:02.148Z,10.83
2018-06-17T02:40:30.360Z,13.70
2018-06-17T02:42:58.402Z,14.23
2018-06-17T02:45:33.379Z,8.37
2018-06-17T02:48:06.538Z,7.70
2018-06-17T02:50:39.760Z,7.67
2018-06-17T02:53:14.300Z,9.10
2018-06-17T02:55:41.820Z,8.63
2018-06-17T02:58:09.344Z,8.33
2018-06-17T03:00:37.800Z,7.60
2018-06-17T03:03:06.023Z,8.23
2018-06-17T03:05:33.540Z,10.20
2018-06-17T03:08:01.056Z,8.80
2018-06-17T03:10:29.284Z,9.80
2018-06-17T03:12:56.837Z,7.80
2018-06-17T03:15:24.381Z,7.57
2018-06-17T03:17:51.925Z,8.60
2018-06-17T03:20:20.051Z,8.60
2018-06-17T03:22:47.528Z,7.37
2018-06-17T03:25:21.272Z,6.40
2018-06-17T03:27:54.312Z,8.53
2018-06-17T03:30:28.667Z,7.63
2018-06-17T03:33:02.965Z,8.70
2018-06-17T03:35:36.659Z,10.87
2018-06-17T03:38:04.119Z,10.70
2018-06-17T03:40:32.291Z,11.20
2018-06-17T03:43:00.164Z,8.10
2018-06-17T03:45:28.108Z,10.03
2018-06-17T03:47:55.635Z,7.87
2018-06-17T03:50:23.219Z,12.23
2018-06-17T03:52:50.760Z,6.60
2018-06-17T03:55:18.307Z,7.77
2018-06-17T03:57:45.891Z,8.20
2018-06-17T04:00:13.840Z,7.73
2018-06-17T04:02:41.360Z,8.00
2018-06-17T04:05:14.436Z,7.50
2018-06-17T04:07:41.969Z,7.00
2018-06-17T04:10:10.332Z,8.57
2018-06-17T04:12:37.787Z,8.83
2018-06-17T04:15:05.316Z,8.60
2018-06-17T04:17:32.949Z,11.07
2018-06-17T04:20:00.815Z,8.27
2018-06-17T04:22:28.784Z,6.30
2018-06-17T04:24:56.955Z,5.77
2018-06-17T04:27:24.695Z,7.30
2018-06-17T04:29:52.823Z,7.53
2018-06-17T04:32:21.297Z,6.23
2018-06-17T04:34:49.136Z,6.17
2018-06-17T04:37:16.631Z,5.77
2018-06-17T04:39:44.504Z,6.60
2018-06-17T04:42:12.664Z,6.70
2018-06-17T04:44:40.740Z,9.17
2018-06-17T04:47:08.256Z,9.10
2018-06-17T04:49:35.784Z,9.50
2018-06-17T04:52:03.328Z,11.70
2018-06-17T04:54:31.128Z,11.03
2018-06-17T04:56:59.291Z,10.90
2018-06-17T04:59:26.735Z,10.33
2018-06-17T05:01:54.232Z,8.77
2018-06-17T05:04:22.975Z,8.47
2018-06-17T05:06:50.488Z,7.20
2018-06-17T05:09:18.096Z,8.63
2018-06-17T05:11:47.120Z,10.17
2018-06-17T05:14:15.224Z,10.77
2018-06-17T05:16:42.760Z,7.67
2018-06-17T05:19:10.280Z,9.77
2018-06-17T05:21:38.696Z,8.97
2018-06-17T05:24:06.540Z,8.50
2018-06-17T05:26:34.062Z,8.43
2018-06-17T05:29:02.432Z,8.60
2018-06-17T05:31:30.304Z,10.77
2018-06-17T05:33:58.705Z,10.43
2018-06-17T05:36:26.759Z,7.33
2018-06-17T05:38:55.145Z,10.03
2018-06-17T05:41:22.670Z,8.20
2018-06-17T05:43:50.676Z,8.87
2018-06-17T05:46:18.588Z,7.33
2018-06-17T05:48:46.624Z,8.27
2018-06-17T05:51:14.167Z,9.10
2018-06-17T05:53:41.707Z,8.47
2018-06-17T05:56:09.731Z,9.73
2018-06-17T05:58:37.244Z,8.30
2018-06-17T06:01:04.921Z,10.37
2018-06-17T06:03:32.450Z,8.00
2018-06-17T06:06:00.034Z,11.00
2018-06-17T06:08:27.672Z,9.93
2018-06-17T06:10:55.968Z,9.73
2018-06-17T06:13:23.480Z,14.03
2018-06-17T06:15:51.004Z,6.93
2018-06-17T06:18:19.176Z,10.47
2018-06-17T06:20:47.728Z,8.90
2018-06-17T06:23:15.556Z,8.87
2018-06-17T06:25:43.564Z,10.00
2018-06-17T06:28:11.105Z,8.93
2018-06-17T06:30:39.223Z,8.87
2018-06-17T06:33:06.724Z,9.07
2018-06-17T06:35:35.169Z,10.03
2018-06-17T06:38:02.632Z,11.23
2018-06-17T06:40:30.204Z,8.90
2018-06-17T06:42:58.090Z,8.80
2018-06-17T06:45:26.089Z,10.10
2018-06-17T06:47:54.299Z,9.80
2018-06-17T06:50:22.714Z,10.03
2018-06-17T06:52:51.448Z,10.33
2018-06-17T06:55:19.492Z,9.10
2018-06-17T06:57:47.549Z,9.40
2018-06-17T07:00:15.096Z,10.17
2018-06-17T07:02:54.086Z,14.73
2018-06-17T07:05:33.493Z,10.07
2018-06-17T07:08:14.847Z,9.17
2018-06-17T07:10:43.501Z,9.40
2018-06-17T07:13:11.928Z,10.70
2018-06-17T07:15:51.352Z,9.17
2018-06-17T07:18:35.760Z,8.60
2018-06-17T07:21:03.985Z,10.00
2018-06-17T07:23:32.886Z,10.10
2018-06-17T07:26:42.354Z,9.83
2018-06-17T07:29:22.705Z,9.47
2018-06-17T07:31:50.989Z,9.47
2018-06-17T07:34:19.025Z,9.30
2018-06-17T07:36:46.556Z,9.17
2018-06-17T07:40:23.518Z,10.07
2018-06-17T07:42:51.284Z,8.73
2018-06-17T07:45:19.292Z,14.87
2018-06-17T07:47:46.882Z,12.40
2018-06-17T07:50:26.988Z,9.43
2018-06-17T07:53:06.360Z,8.87
2018-06-17T07:55:33.944Z,8.77
2018-06-17T07:58:01.521Z,8.20
2018-06-17T08:00:29.182Z,8.67
2018-06-17T08:02:56.813Z,9.40
2018-06-17T08:05:24.411Z,9.60
2018-06-17T08:07:52.555Z,8.57
2018-06-17T08:10:20.102Z,8.93
2018-06-17T08:12:48.372Z,12.07
2018-06-17T08:15:15.929Z,9.23
2018-06-17T08:17:43.620Z,8.63
2018-06-17T08:20:12.038Z,7.40
2018-06-17T08:22:39.907Z,9.20
2018-06-17T08:25:07.568Z,9.43
2018-06-17T08:27:35.923Z,9.30
2018-06-17T08:30:04.425Z,8.30
2018-06-17T08:32:32.297Z,15.87
2018-06-17T08:35:00.652Z,8.80
2018-06-17T08:37:28.544Z,15.93
2018-06-17T08:39:56.856Z,8.93
2018-06-17T08:42:24.838Z,9.60
2018-06-17T08:44:52.764Z,9.00
2018-06-17T08:47:20.641Z,7.67
2018-06-17T08:49:48.227Z,7.90
2018-06-17T08:52:15.756Z,7.23
2018-06-17T08:54:43.315Z,7.70
2018-06-17T08:57:11.157Z,8.10
2018-06-17T08:59:38.667Z,8.10
2018-06-17T09:02:07.036Z,8.73
2018-06-17T09:04:35.632Z,8.37
2018-06-17T09:07:04.474Z,7.77
2018-06-17T09:09:32.891Z,8.30
2018-06-17T09:12:00.952Z,8.33
2018-06-17T09:14:29.315Z,9.17
2018-06-17T09:16:56.955Z,9.27
2018-06-17T09:19:24.853Z,7.30
2018-06-17T09:21:52.800Z,7.27
2018-06-17T09:24:20.889Z,8.10
2018-06-17T09:26:49.705Z,11.40
2018-06-17T09:29:17.261Z,8.53
2018-06-17T09:31:45.170Z,8.13
2018-06-17T09:34:13.092Z,9.27
2018-06-17T09:36:40.657Z,8.60
2018-06-17T09:39:08.827Z,9.57
2018-06-17T09:41:36.451Z,6.60
2018-06-17T09:44:04.987Z,6.83
2018-06-17T09:46:33.152Z,7.30
2018-06-17T09:49:01.043Z,8.07
2018-06-17T09:51:28.611Z,9.67
2018-06-17T09:53:56.873Z,8.83
2018-06-17T09:56:24.461Z,9.20
2018-06-17T09:58:52.440Z,6.80
2018-06-17T10:01:20.092Z,6.77
2018-06-17T10:03:47.710Z,7.73
2018-06-17T10:06:15.921Z,8.03
2018-06-17T10:08:43.452Z,6.40
2018-06-17T10:11:11.973Z,6.13
2018-06-17T10:13:42.720Z,7.20
2018-06-17T10:16:11.128Z,7.10
2018-06-17T10:18:39.324Z,8.53
2018-06-17T10:21:07.891Z,6.47
2018-06-17T10:23:35.468Z,6.10
2018-06-17T10:26:03.412Z,9.80
2018-06-17T10:28:32.245Z,6.53
2018-06-17T10:31:01.760Z,5.80
2018-06-17T10:33:30.512Z,6.80
2018-06-17T10:35:58.123Z,5.93
2018-06-17T10:38:25.672Z,6.17
2018-06-17T10:40:53.259Z,6.20
2018-06-17T10:43:23.662Z,6.40
2018-06-17T10:45:51.940Z,6.27
2018-06-17T10:48:19.506Z,6.17
2018-06-17T10:50:47.185Z,5.70
2018-06-17T10:53:14.705Z,7.53
2018-06-17T10:55:42.304Z,5.70
2018-06-17T10:58:09.905Z,7.30
2018-06-17T11:00:37.571Z,6.20
2018-06-17T11:03:05.776Z,6.50
2018-06-17T11:05:34.270Z,4.97
2018-06-17T11:08:01.824Z,6.70
2018-06-17T11:10:30.646Z,5.57
2018-06-17T11:12:58.739Z,4.87
2018-06-17T11:15:27.258Z,5.10
2018-06-17T11:17:54.825Z,4.30
2018-06-17T11:20:22.772Z,4.90
2018-06-17T11:22:51.865Z,7.03
2018-06-17T11:25:20.165Z,8.53
2018-06-17T11:27:48.128Z,5.30
2018-06-17T11:30:15.692Z,5.90
2018-06-17T11:32:44.288Z,7.90
2018-06-17T11:35:12.545Z,5.70
2018-06-17T11:37:40.165Z,6.10
2018-06-17T11:40:08.292Z,5.53
2018-06-17T11:42:36.438Z,5.87
2018-06-17T11:45:04.391Z,5.27
2018-06-17T11:47:32.013Z,5.33
2018-06-17T11:49:59.480Z,4.40
2018-06-17T11:52:27.096Z,5.00
2018-06-17T11:54:54.851Z,6.63
2018-06-17T11:57:23.288Z,5.20
2018-06-17T11:59:51.580Z,4.80
2018-06-17T12:02:19.117Z,5.83
2018-06-17T12:04:46.636Z,5.03
2018-06-17T12:07:14.690Z,4.63
2018-06-17T12:09:42.291Z,5.50
2018-06-17T12:12:10.290Z,5.70
2018-06-17T12:14:38.663Z,7.37
2018-06-17T12:17:06.224Z,6.87
2018-06-17T12:19:34.947Z,6.00
2018-06-17T12:22:03.028Z,4.50
2018-06-17T12:24:31.102Z,4.90
2018-06-17T12:26:58.584Z,5.23
2018-06-17T12:29:26.133Z,6.00
2018-06-17T12:31:55.017Z,6.53
2018-06-17T12:34:23.108Z,5.67
2018-06-17T12:36:50.726Z,5.37
2018-06-17T12:39:18.768Z,6.87
2018-06-17T12:41:46.920Z,5.13
2018-06-17T12:44:15.009Z,5.80
2018-06-17T12:46:42.970Z,5.67
2018-06-17T12:49:10.929Z,5.03
2018-06-17T12:51:38.496Z,5.23
2018-06-17T12:54:06.040Z,5.27
2018-06-17T12:56:33.602Z,4.40
2018-06-17T12:59:01.315Z,5.23
2018-06-17T13:01:29.019Z,5.13
2018-06-17T13:03:56.587Z,7.17
2018-06-17T13:06:24.744Z,6.23
2018-06-17T13:08:53.305Z,6.27
2018-06-17T13:11:21.483Z,5.20
2018-06-17T13:13:49.492Z,8.93
2018-06-17T13:16:17.805Z,7.40
2018-06-17T13:18:46.155Z,5.83
2018-06-17T13:21:14.491Z,6.63
2018-06-17T13:23:42.128Z,7.00
2018-06-17T13:26:10.476Z,5.60
2018-06-17T13:28:38.512Z,7.33
2018-06-17T13:31:07.035Z,6.50
2018-06-17T13:33:35.365Z,5.73
2018-06-17T13:36:04.134Z,6.80
2018-06-17T13:38:32.779Z,7.07
2018-06-17T13:41:00.570Z,6.07
2018-06-17T13:43:29.160Z,7.23
2018-06-17T13:45:57.768Z,6.40
2018-06-17T13:48:26.228Z,7.23
2018-06-17T13:50:54.160Z,6.87
2018-06-17T13:53:22.585Z,8.80
2018-06-17T13:55:51.177Z,7.20
2018-06-17T13:58:18.976Z,7.83
2018-06-17T14:00:46.978Z,6.90
2018-06-17T14:03:16.130Z,9.53
2018-06-17T14:05:44.654Z,6.60
2018-06-17T14:08:13.684Z,11.10
2018-06-17T14:10:41.458Z,7.83
2018-06-17T14:13:09.592Z,6.63
2018-06-17T14:15:38.040Z,6.83
2018-06-17T14:18:06.011Z,10.37
2018-06-17T14:20:34.543Z,6.10
2018-06-17T14:23:02.231Z,6.03
2018-06-17T14:25:31.394Z,6.33
2018-06-17T14:27:59.335Z,7.90
2018-06-17T14:30:28.444Z,7.50
2018-06-17T14:32:57.037Z,7.63
2018-06-17T14:35:25.950Z,5.77
2018-06-17T14:37:54.239Z,5.90
2018-06-17T14:40:22.741Z,6.00
2018-06-17T14:42:56.074Z,5.77
2018-06-17T14:45:30.489Z,6.13
2018-06-17T14:48:03.828Z,4.77
2018-06-17T14:50:37.165Z,9.30
2018-06-17T14:53:06.861Z,5.50
2018-06-17T14:55:35.424Z,5.30
2018-06-17T14:58:03.330Z,5.37
2018-06-17T15:00:31.154Z,5.10
2018-06-17T15:02:59.046Z,4.40
2018-06-17T15:05:29.134Z,6.00
2018-06-17T15:07:57.638Z,5.40
2018-06-17T15:10:25.514Z,5.80
2018-06-17T15:12:53.841Z,4.47
2018-06-17T15:15:22.128Z,4.57
2018-06-17T15:17:50.007Z,6.80
2018-06-17T15:20:18.570Z,4.10
2018-06-17T15:22:46.944Z,4.40
2018-06-17T15:25:14.895Z,4.23
2018-06-17T15:27:42.926Z,5.10
2018-06-17T15:30:10.915Z,3.97
2018-06-17T15:32:45.543Z,4.07
2018-06-17T15:35:20.985Z,5.87
2018-06-17T15:37:54.265Z,4.63
2018-06-17T15:40:27.504Z,3.87
2018-06-17T15:42:56.537Z,3.40
2018-06-17T15:45:24.669Z,3.90
2018-06-17T15:47:52.245Z,4.10
2018-06-17T15:50:19.917Z,4.37
2018-06-17T15:52:48.078Z,4.33
2018-06-17T15:55:15.683Z,5.10
2018-06-17T15:57:44.081Z,4.90
2018-06-17T16:00:11.644Z,5.20
2018-06-17T16:02:39.613Z,4.97
2018-06-17T16:05:07.607Z,5.10
2018-06-17T16:07:35.559Z,4.63
2018-06-17T16:10:03.744Z,5.73
2018-06-17T16:12:37.641Z,6.57
2018-06-17T16:15:10.916Z,6.97
2018-06-17T16:17:44.224Z,6.07
2018-06-17T16:20:19.411Z,6.30
2018-06-17T16:22:46.950Z,5.93
2018-06-17T16:25:15.042Z,16.80
2018-06-17T16:27:42.712Z,6.50
2018-06-17T16:30:10.808Z,6.37
2018-06-17T16:32:38.843Z,6.87
2018-06-17T16:35:07.012Z,8.63
2018-06-17T16:37:34.475Z,8.90
2018-06-17T16:40:03.233Z,11.93
2018-06-17T16:42:30.758Z,6.83
2018-06-17T16:44:58.778Z,8.93
2018-06-17T16:47:27.545Z,8.30
2018-06-17T16:49:55.754Z,7.50
2018-06-17T16:52:28.928Z,11.90
2018-06-17T16:55:02.348Z,9.60
2018-06-17T16:57:36.044Z,8.17
2018-06-17T17:00:08.350Z,6.80
2018-06-17T17:02:36.171Z,7.90
2018-06-17T17:05:03.756Z,6.63
2018-06-17T17:07:32.462Z,10.33
2018-06-17T17:10:00.456Z,6.13
2018-06-17T17:12:29.164Z,7.00
2018-06-17T17:14:56.679Z,6.73
2018-06-17T17:17:24.632Z,9.60
2018-06-17T17:19:52.193Z,10.20
2018-06-17T17:22:20.070Z,7.13
2018-06-17T17:24:47.611Z,7.73
2018-06-17T17:27:15.552Z,12.83
2018-06-17T17:29:44.574Z,7.90
2018-06-17T17:32:18.985Z,7.70
2018-06-17T17:34:52.445Z,10.47
2018-06-17T17:37:25.738Z,6.00
2018-06-17T17:40:00.203Z,7.10
2018-06-17T17:42:28.809Z,6.30
2018-06-17T17:45:02.509Z,6.57
2018-06-17T17:47:31.627Z,6.10
2018-06-17T17:50:00.006Z,6.23
2018-06-17T17:52:28.055Z,7.20
2018-06-17T17:54:57.076Z,5.80
2018-06-17T17:57:25.212Z,8.93
2018-06-17T17:59:53.288Z,6.03
2018-06-17T18:02:20.869Z,6.00
2018-06-17T18:04:49.648Z,8.20
2018-06-17T18:07:17.216Z,14.73
2018-06-17T18:09:45.220Z,7.07
2018-06-17T18:12:14.004Z,6.50
2018-06-17T18:14:42.019Z,5.67
2018-06-17T18:17:09.845Z,6.80
2018-06-17T18:19:38.328Z,6.70
2018-06-17T18:22:06.617Z,6.20
2018-06-17T18:24:34.672Z,7.70
2018-06-17T18:27:09.418Z,6.80
2018-06-17T18:29:42.776Z,14.87
2018-06-17T18:32:16.623Z,12.73
2018-06-17T18:34:51.794Z,16.93
2018-06-17T18:37:19.603Z,11.20
2018-06-17T18:39:47.618Z,10.97
2018-06-17T18:42:15.829Z,8.47
2018-06-17T18:44:44.760Z,7.10
2018-06-17T18:47:12.713Z,7.00
2018-06-17T18:49:40.827Z,9.97
2018-06-17T18:52:08.568Z,11.50
2018-06-17T18:54:36.984Z,11.67
2018-06-17T18:57:05.893Z,10.33
2018-06-17T18:59:33.782Z,8.43
2018-06-17T19:02:01.692Z,6.97
2018-06-17T19:04:30.898Z,17.53
2018-06-17T19:06:59.866Z,18.20
2018-06-17T19:09:34.338Z,12.10
2018-06-17T19:12:11.137Z,10.37
2018-06-17T19:14:45.526Z,12.73
2018-06-17T19:17:19.074Z,15.60
2018-06-17T19:19:47.207Z,14.90
2018-06-17T19:22:16.924Z,11.00
2018-06-17T19:24:45.586Z,11.23
2018-06-17T19:27:14.379Z,14.40
2018-06-17T19:29:42.766Z,9.47
2018-06-17T19:32:11.802Z,8.83
2018-06-17T19:34:39.957Z,6.57
2018-06-17T19:37:08.772Z,11.97
2018-06-17T19:39:36.917Z,9.87
2018-06-17T19:42:06.069Z,13.67
2018-06-17T19:44:34.624Z,16.73
2018-06-17T19:47:03.020Z,16.33
2018-06-17T19:49:37.965Z,13.93
2018-06-17T19:52:14.406Z,9.60
2018-06-17T19:54:48.920Z,6.27
2018-06-17T19:57:22.657Z,10.20
2018-06-17T19:59:57.624Z,9.40
2018-06-17T20:02:26.153Z,12.50
2018-06-17T20:04:54.495Z,14.63
2018-06-17T20:07:22.924Z,16.50
2018-06-17T20:09:51.485Z,11.47
2018-06-17T20:12:21.141Z,13.10
2018-06-17T20:14:49.243Z,13.73
2018-06-17T20:17:17.051Z,12.97
2018-06-17T20:19:45.189Z,13.27
2018-06-17T20:22:14.080Z,13.00
2018-06-17T20:24:41.950Z,15.47
2018-06-17T20:27:10.242Z,10.37
2018-06-17T20:29:38.778Z,6.93
2018-06-17T20:32:12.893Z,11.10
2018-06-17T20:34:46.730Z,12.07
2018-06-17T20:37:20.050Z,10.83
2018-06-17T20:39:53.564Z,10.13
2018-06-17T20:42:28.360Z,10.23
2018-06-17T20:44:57.029Z,12.77
2018-06-17T20:47:24.571Z,13.47
2018-06-17T20:49:52.819Z,12.23
2018-06-17T20:52:21.123Z,12.40
2018-06-17T20:54:48.648Z,18.50
2018-06-17T20:57:16.566Z,14.07
2018-06-17T20:59:44.939Z,24.37
2018-06-17T21:02:13.207Z,23.33
2018-06-17T21:04:41.138Z,15.27
2018-06-17T21:07:09.330Z,10.80
2018-06-17T21:09:37.146Z,21.70
2018-06-17T21:12:06.130Z,18.50
2018-06-17T21:14:33.749Z,21.60
2018-06-17T21:17:01.700Z,13.70
2018-06-17T21:19:34.805Z,20.90
2018-06-17T21:23:07.077Z,23.77
2018-06-17T21:25:41.168Z,17.33
2018-06-17T21:28:08.727Z,13.80
2018-06-17T21:30:36.699Z,14.73
2018-06-17T21:33:05.078Z,14.40
2018-06-17T21:35:32.603Z,16.43
2018-06-17T21:38:00.574Z,16.73
2018-06-17T21:40:28.848Z,20.80
2018-06-17T21:42:57.019Z,14.00
2018-06-17T21:45:24.866Z,16.43
2018-06-17T21:47:52.890Z,13.97
2018-06-17T21:50:21.415Z,9.90
2018-06-17T21:52:48.948Z,10.33
2018-06-17T21:55:16.894Z,9.80
2018-06-17T21:57:44.517Z,8.77
2018-06-17T22:00:12.647Z,6.87
2018-06-17T22:02:41.835Z,7.50
2018-06-17T22:05:10.453Z,7.27
2018-06-17T22:07:44.298Z,7.73
2018-06-17T22:10:18.143Z,13.10
2018-06-17T22:12:51.661Z,13.17
2018-06-17T22:15:25.629Z,11.70
2018-06-17T22:17:54.292Z,12.23
2018-06-17T22:20:22.285Z,15.00
2018-06-17T22:22:49.804Z,8.43
2018-06-17T22:25:18.260Z,9.67
2018-06-17T22:27:46.596Z,8.77
2018-06-17T22:30:14.113Z,7.93
2018-06-17T22:32:42.591Z,6.83
2018-06-17T22:35:10.669Z,6.00
2018-06-17T22:37:38.210Z,6.40
2018-06-17T22:40:06.817Z,8.73
2018-06-17T22:42:35.573Z,5.60
2018-06-17T22:45:03.957Z,9.10
2018-06-17T22:47:38.652Z,4.30
2018-06-17T22:50:07.445Z,5.23
2018-06-17T22:53:46.673Z,4.43
2018-06-17T22:56:20.625Z,5.57
2018-06-17T22:58:53.809Z,5.70
2018-06-17T23:01:26.851Z,6.57
2018-06-17T23:04:00.050Z,6.07
2018-06-17T23:06:33.998Z,4.67
2018-06-17T23:09:07.369Z,5.73
2018-06-17T23:11:35.827Z,6.30
2018-06-17T23:14:03.345Z,6.63
2018-06-17T23:16:30.986Z,6.80
2018-06-17T23:18:58.903Z,5.80
2018-06-17T23:21:27.432Z,8.07
2018-06-17T23:23:54.951Z,6.27
2018-06-17T23:26:22.457Z,7.23
2018-06-17T23:28:49.988Z,4.90
2018-06-17T23:31:18.255Z,6.60
2018-06-17T23:33:46.322Z,4.73
2018-06-17T23:36:13.850Z,5.70
2018-06-17T23:38:41.382Z,7.70
2018-06-17T23:41:09.298Z,7.17
2018-06-17T23:43:38.115Z,6.00
2018-06-17T23:46:11.707Z,4.70
2018-06-17T23:48:44.839Z,5.50
2018-06-17T23:51:19.897Z,4.90
2018-06-17T23:53:53.113Z,7.73
2018-06-17T23:56:20.842Z,8.43
2018-06-17T23:58:48.376Z,7.63
